Time;durP1;ratioP1;P1;durP2;ratioP2;P2;SDS_P1;SDS_P2;PMS_P1;PMS_P2;Temp;Humidity;BMP_temperature;BMP_pressure;BME280_temperature;BME280_humidity;BME280_pressure;Samples;Min_cycle;Max_cycle;Signal;HPM_P1;HPM_P2
2022/03/20 00:01:13;;;;;;;2.57;2.37;;;26.20;40.30;;;;;;4977584;28;20445;-83
2022/03/20 00:03:40;;;;;;;2.60;2.40;;;26.20;40.30;;;;;;4977245;28;20489;-83
2022/03/20 00:06:08;;;;;;;2.97;2.77;;;26.20;40.30;;;;;;4976926;28;20944;-88
2022/03/20 00:08:35;;;;;;;2.43;2.23;;;26.20;40.30;;;;;;4977059;28;20442;-83
2022/03/20 00:11:02;;;;;;;2.70;2.50;;;26.20;40.30;;;;;;4977894;28;20450;-83
2022/03/20 00:13:30;;;;;;;2.63;2.50;;;26.20;40.30;;;;;;4976937;28;20453;-84
2022/03/20 00:15:58;;;;;;;2.83;2.63;;;26.10;40.20;;;;;;4977574;28;20492;-83
2022/03/20 00:18:26;;;;;;;2.53;2.33;;;26.10;40.20;;;;;;4976935;28;20504;-89
2022/03/20 00:20:54;;;;;;;2.67;2.50;;;26.10;40.30;;;;;;4978417;28;20460;-86
2022/03/20 00:23:24;;;;;;;2.47;2.27;;;26.10;40.20;;;;;;4980342;28;20453;-94
2022/03/20 00:25:52;;;;;;;2.30;2.10;;;26.10;40.30;;;;;;4978440;28;20444;-85
2022/03/20 00:28:20;;;;;;;2.70;2.50;;;26.10;40.30;;;;;;4976978;28;20449;-93
2022/03/20 00:30:48;;;;;;;3.07;2.70;;;26.00;40.30;;;;;;4976973;28;20453;-83
2022/03/20 00:33:16;;;;;;;3.20;3.00;;;26.00;40.30;;;;;;4977042;28;20511;-83
2022/03/20 00:35:43;;;;;;;2.83;2.63;;;26.00;40.30;;;;;;4977259;28;20455;-91
2022/03/20 00:38:10;;;;;;;2.90;2.70;;;26.00;40.90;;;;;;4976593;28;20979;-93
2022/03/20 00:40:39;;;;;;;2.90;2.70;;;26.00;40.30;;;;;;4976339;28;20437;-83
2022/03/20 00:43:06;;;;;;;3.40;3.10;;;26.00;40.30;;;;;;4976686;28;20803;-83
2022/03/20 00:45:33;;;;;;;3.40;3.17;;;26.00;40.30;;;;;;4976834;28;20563;-84
2022/03/20 00:48:01;;;;;;;2.90;2.70;;;26.00;40.30;;;;;;4976595;28;20480;-84
2022/03/20 00:50:29;;;;;;;3.00;2.80;;;26.00;40.30;;;;;;4976572;28;20454;-88
2022/03/20 00:52:56;;;;;;;3.17;2.97;;;26.00;40.30;;;;;;4976750;28;20449;-83
2022/03/20 00:55:23;;;;;;;2.40;2.30;;;26.00;40.30;;;;;;4976141;28;20944;-83
2022/03/20 00:57:51;;;;;;;3.40;3.17;;;25.90;40.30;;;;;;4976443;28;20800;-83
2022/03/20 01:00:18;;;;;;;3.00;2.80;;;25.90;40.30;;;;;;4976644;28;20445;-82
2022/03/20 01:02:46;;;;;;;3.27;3.07;;;25.90;40.90;;;;;;4976207;28;20433;-84
2022/03/20 01:05:13;;;;;;;2.60;2.40;;;25.90;40.30;;;;;;4976537;28;20485;-84
2022/03/20 01:07:41;;;;;;;2.93;2.73;;;25.90;40.30;;;;;;4976474;28;20958;-87
2022/03/20 01:10:09;;;;;;;3.00;2.80;;;25.90;40.30;;;;;;4976436;28;20816;-95
2022/03/20 01:12:38;;;;;;;2.90;2.70;;;25.90;40.30;;;;;;4976153;28;20530;-94
2022/03/20 01:15:10;;;;;;;4.33;2.63;;;25.90;40.30;;;;;;4976106;28;20465;-84
2022/03/20 01:17:38;;;;;;;3.27;3.07;;;25.80;40.20;;;;;;4976337;28;20452;-84
2022/03/20 01:20:08;;;;;;;2.93;2.73;;;25.80;40.30;;;;;;4976217;28;20449;-84
2022/03/20 01:22:35;;;;;;;3.27;2.87;;;25.80;40.20;;;;;;4976887;28;20548;-84
2022/03/20 01:25:04;;;;;;;3.00;2.80;;;25.80;40.30;;;;;;4975931;28;20500;-84
2022/03/20 01:27:31;;;;;;;3.57;3.37;;;25.80;40.30;;;;;;4976405;28;20533;-94
2022/03/20 01:29:58;;;;;;;3.67;3.33;;;25.80;40.30;;;;;;4975775;28;20928;-85
2022/03/20 01:32:28;;;;;;;3.23;3.03;;;25.80;40.30;;;;;;4975962;28;20445;-84
2022/03/20 01:34:55;;;;;;;3.70;3.40;;;25.80;40.30;;;;;;4975976;28;20496;-84
2022/03/20 01:37:22;;;;;;;3.10;2.90;;;25.80;40.40;;;;;;4976216;28;20452;-83
2022/03/20 01:39:49;;;;;;;3.17;2.97;;;25.90;40.40;;;;;;4976104;28;20446;-93
2022/03/20 01:42:16;;;;;;;3.07;2.87;;;25.70;40.40;;;;;;4976311;28;20437;-92
2022/03/20 01:44:43;;;;;;;3.90;3.60;;;25.70;40.40;;;;;;4976729;28;20515;-83
2022/03/20 01:47:09;;;;;;;3.50;3.30;;;25.80;40.40;;;;;;4981057;28;20447;-84
2022/03/20 01:53:13;;;;;;;3.60;3.20;;;25.70;40.30;;;;;;4975040;28;20822;-92
2022/03/20 01:55:40;;;;;;;3.70;3.50;;;25.60;40.50;;;;;;4975444;28;20477;-83
2022/03/20 01:58:06;;;;;;;3.67;3.40;;;25.70;40.40;;;;;;4975507;28;20924;-92
2022/03/20 02:00:33;;;;;;;3.50;3.30;;;25.70;40.40;;;;;;4975423;28;20442;-83
2022/03/20 02:03:00;;;;;;;4.63;3.43;;;25.70;40.40;;;;;;4975631;28;20944;-92
2022/03/20 02:05:27;;;;;;;3.07;2.87;;;25.60;40.40;;;;;;4975398;28;20497;-83
2022/03/20 02:07:55;;;;;;;3.70;3.10;;;25.60;40.30;;;;;;4975450;28;20441;-84
2022/03/20 02:10:35;;;;;;;3.40;3.07;;;25.60;40.40;;;;;;4975412;28;20452;-83
2022/03/20 02:13:02;;;;;;;3.80;3.50;;;25.60;40.40;;;;;;4975305;28;20527;-83
2022/03/20 02:15:29;;;;;;;3.40;3.20;;;25.60;40.40;;;;;;4975704;28;20453;-84
2022/03/20 02:17:57;;;;;;;3.70;3.40;;;25.60;40.40;;;;;;4975415;28;20449;-83
2022/03/20 02:20:23;;;;;;;3.27;3.07;;;25.50;40.40;;;;;;4975165;28;20464;-83
2022/03/20 02:22:52;;;;;;;3.93;3.70;;;25.70;40.50;;;;;;4975525;28;20453;-93
2022/03/20 02:25:20;;;;;;;3.13;2.93;;;25.60;40.40;;;;;;4974695;28;20492;-83
2022/03/20 02:27:47;;;;;;;3.20;3.00;;;25.50;40.40;;;;;;4975284;28;20446;-83
2022/03/20 02:30:16;;;;;;;3.37;3.17;;;25.50;40.40;;;;;;4975446;28;20449;-87
2022/03/20 02:32:45;;;;;;;3.27;3.07;;;25.50;40.40;;;;;;4975333;28;20482;-85
2022/03/20 02:35:15;;;;;;;3.60;3.40;;;25.50;40.40;;;;;;4975377;28;20437;-85
2022/03/20 02:37:42;;;;;;;3.13;2.93;;;25.50;40.40;;;;;;4975509;28;20473;-84
2022/03/20 02:40:12;;;;;;;3.40;3.13;;;25.50;40.40;;;;;;4975406;28;20452;-83
2022/03/20 02:42:41;;;;;;;3.90;3.60;;;25.50;40.40;;;;;;4974847;28;20943;-83
2022/03/20 02:45:10;;;;;;;4.00;3.70;;;25.50;40.50;;;;;;4975071;28;20473;-93
2022/03/20 02:47:39;;;;;;;3.70;3.40;;;25.50;40.50;;;;;;4974628;28;20477;-94
2022/03/20 02:50:09;;;;;;;3.37;3.13;;;25.50;40.40;;;;;;4975284;28;20441;-83
2022/03/20 02:52:48;;;;;;;3.33;3.13;;;25.50;40.40;;;;;;4975078;28;20452;-92
2022/03/20 02:55:17;;;;;;;4.13;3.83;;;25.50;40.40;;;;;;4975164;28;20473;-84
2022/03/20 02:57:47;;;;;;;4.00;3.80;;;25.40;40.40;;;;;;4975536;28;20441;-84
2022/03/20 03:00:17;;;;;;;3.57;3.33;;;25.40;40.40;;;;;;4975083;28;20524;-84
2022/03/20 03:02:45;;;;;;;4.00;3.70;;;25.40;40.80;;;;;;4975829;28;20571;-86
2022/03/20 03:05:14;;;;;;;3.40;3.20;;;25.40;40.40;;;;;;4978723;28;20504;-86
2022/03/20 03:13:14;;;;;;;4.13;3.83;;;25.40;40.30;;;;;;4978785;28;20408;-85
2022/03/20 03:15:41;;;;;;;3.60;3.40;;;25.40;40.50;;;;;;4978536;28;20445;-84
2022/03/20 03:18:08;;;;;;;3.67;3.47;;;25.30;40.40;;;;;;4978258;28;20970;-94
2022/03/20 03:20:35;;;;;;;4.50;4.17;;;25.40;40.40;;;;;;4978583;28;20803;-84
2022/03/20 03:23:02;;;;;;;3.87;3.50;;;25.30;40.40;;;;;;4978180;28;20496;-83
2022/03/20 03:25:32;;;;;;;3.23;3.03;;;25.30;40.40;;;;;;4978136;28;20492;-84
2022/03/20 03:27:59;;;;;;;3.83;3.50;;;25.30;40.40;;;;;;4978760;28;20445;-90
2022/03/20 03:30:26;;;;;;;3.73;3.53;;;25.50;40.50;;;;;;4978693;28;20468;-84
2022/03/20 03:32:53;;;;;;;3.43;3.20;;;25.30;40.40;;;;;;4978322;28;20508;-88
2022/03/20 03:38:05;;;;;;;4.30;3.90;;;25.30;40.40;;;;;;4978294;28;20469;-89
2022/03/20 03:40:33;;;;;;;4.07;3.77;;;25.40;40.40;;;;;;4978089;28;20453;-84
2022/03/20 03:43:00;;;;;;;3.50;3.30;;;25.30;40.30;;;;;;4977896;28;20456;-84
2022/03/20 03:45:27;;;;;;;4.40;4.00;;;25.30;40.40;;;;;;4977967;28;20489;-84
2022/03/20 03:47:53;;;;;;;4.37;4.07;;;25.20;40.40;;;;;;4977780;28;20480;-90
2022/03/20 03:50:21;;;;;;;4.03;3.73;;;25.30;40.40;;;;;;4977748;28;20442;-95
2022/03/20 03:52:48;;;;;;;3.70;3.40;;;25.30;40.30;;;;;;4977719;28;20448;-84
2022/03/20 03:55:15;;;;;;;3.77;3.47;;;25.20;40.30;;;;;;4977803;28;20955;-84
2022/03/20 03:57:48;;;;;;;4.20;3.80;;;25.30;40.40;;;;;;4977684;28;20453;-84
2022/03/20 04:00:16;;;;;;;3.80;3.50;;;25.20;40.30;;;;;;4978436;28;20456;-93
2022/03/20 04:02:43;;;;;;;4.20;3.90;;;25.20;40.40;;;;;;4977541;28;20445;-84
2022/03/20 04:05:10;;;;;;;3.63;3.30;;;25.20;40.40;;;;;;4977172;28;20976;-85
2022/03/20 04:07:38;;;;;;;4.80;4.40;;;25.20;40.40;;;;;;4977323;28;20802;-84
2022/03/20 04:10:06;;;;;;;4.30;4.00;;;25.20;40.40;;;;;;4977801;28;20803;-84
2022/03/20 04:12:33;;;;;;;4.40;4.10;;;25.20;40.40;;;;;;4977456;28;20441;-83
2022/03/20 04:15:02;;;;;;;5.50;3.77;;;25.20;40.40;;;;;;4976785;28;20453;-93
2022/03/20 04:17:30;;;;;;;3.87;3.63;;;25.20;40.30;;;;;;4977489;28;20441;-84
2022/03/20 04:19:58;;;;;;;4.43;4.03;;;25.20;40.30;;;;;;4977315;28;20858;-84
2022/03/20 04:22:25;;;;;;;3.50;3.30;;;25.10;40.30;;;;;;4977470;28;20454;-85
2022/03/20 04:24:51;;;;;;;4.10;3.80;;;25.20;40.40;;;;;;4977355;28;20504;-84
2022/03/20 04:27:18;;;;;;;3.80;3.50;;;25.10;40.30;;;;;;4978365;28;20454;-94
2022/03/20 04:29:45;;;;;;;4.60;4.30;;;25.20;40.40;;;;;;4976939;28;20448;-84
2022/03/20 04:32:14;;;;;;;4.77;4.47;;;25.20;40.40;;;;;;4976546;28;20449;-83
2022/03/20 04:34:42;;;;;;;4.63;4.23;;;25.20;40.40;;;;;;4977171;28;20463;-84
2022/03/20 04:37:11;;;;;;;4.47;4.10;;;25.10;40.30;;;;;;4977183;28;20441;-85
2022/03/20 04:39:39;;;;;;;4.70;4.40;;;25.10;40.40;;;;;;4977087;28;20441;-84
2022/03/20 04:42:08;;;;;;;4.30;4.00;;;25.10;40.40;;;;;;4976721;28;20437;-84
2022/03/20 04:44:34;;;;;;;3.93;3.63;;;25.10;40.30;;;;;;4976912;28;20445;-84
2022/03/20 04:47:01;;;;;;;4.60;4.30;;;25.10;40.30;;;;;;4977155;28;20493;-84
2022/03/20 05:00:26;;;;;;;3.80;3.50;;;25.10;40.30;;;;;;4976594;28;20449;-93
2022/03/20 05:02:53;;;;;;;3.70;3.33;;;25.10;40.30;;;;;;4976238;28;20936;-95
2022/03/20 05:05:21;;;;;;;4.10;3.80;;;25.20;40.30;;;;;;4976034;28;20484;-84
2022/03/20 05:07:47;;;;;;;4.13;3.83;;;25.20;40.20;;;;;;4976347;28;20449;-84
2022/03/20 05:15:42;;;;;;;4.07;3.77;;;25.20;40.00;;;;;;4976610;28;20979;-94
2022/03/20 05:18:09;;;;;;;4.00;3.70;;;25.30;40.10;;;;;;4976202;28;20442;-89
2022/03/20 05:20:37;;;;;;;4.20;3.90;;;25.40;40.00;;;;;;4975870;28;20928;-84
2022/03/20 05:23:04;;;;;;;4.03;3.73;;;25.40;39.90;;;;;;4976160;28;20445;-84
2022/03/20 05:25:31;;;;;;;4.73;4.33;;;25.40;40.00;;;;;;4977673;28;20480;-84
2022/03/20 05:27:58;;;;;;;4.43;4.03;;;25.40;39.90;;;;;;4977292;28;20429;-84
2022/03/20 05:30:25;;;;;;;4.47;4.17;;;25.50;40.00;;;;;;4979211;28;20441;-83
2022/03/20 05:32:53;;;;;;;4.63;4.23;;;25.50;39.90;;;;;;4977491;28;20807;-84
2022/03/20 05:35:19;;;;;;;4.40;4.00;;;25.50;39.90;;;;;;4976110;28;20449;-84
2022/03/20 05:37:48;;;;;;;4.17;3.87;;;25.50;39.80;;;;;;4976012;28;20452;-84
2022/03/20 05:40:16;;;;;;;4.63;4.27;;;25.60;39.90;;;;;;4975659;28;20441;-84
2022/03/20 05:42:43;;;;;;;4.23;3.97;;;25.50;39.70;;;;;;4976230;28;20449;-84
2022/03/20 05:45:11;;;;;;;4.30;4.00;;;25.60;39.80;;;;;;4975799;28;20446;-84
2022/03/20 05:47:39;;;;;;;3.83;3.53;;;25.60;39.80;;;;;;4975333;28;20473;-94
2022/03/20 05:50:08;;;;;;;4.57;4.17;;;25.60;39.80;;;;;;4958629;28;20441;-84
2022/03/20 05:52:35;;;;;;;3.80;3.50;;;25.70;39.70;;;;;;4975625;28;20473;-85
2022/03/20 05:55:04;;;;;;;4.27;3.40;;;25.70;39.70;;;;;;4975599;28;20449;-83
2022/03/20 06:00:23;;;;;;;4.97;4.63;;;25.70;39.60;;;;;;4975901;28;20421;-94
2022/03/20 06:02:50;;;;;;;5.83;3.90;;;25.80;39.60;;;;;;4975761;28;20457;-84
2022/03/20 06:05:17;;;;;;;4.47;4.17;;;25.80;39.60;;;;;;4974625;28;20450;-84
2022/03/20 06:07:46;;;;;;;4.40;4.10;;;25.80;39.60;;;;;;4975099;28;20500;-84
2022/03/20 06:10:15;;;;;;;4.67;4.37;;;26.00;39.70;;;;;;4975151;28;20441;-84
2022/03/20 06:12:43;;;;;;;4.30;4.00;;;25.80;39.50;;;;;;4975082;28;20807;-93
2022/03/20 06:15:10;;;;;;;4.67;4.37;;;25.90;39.50;;;;;;4974714;28;20445;-84
2022/03/20 06:17:40;;;;;;;4.53;4.23;;;25.90;40.10;;;;;;4975075;28;20445;-83
2022/03/20 06:20:08;;;;;;;4.27;3.97;;;25.90;39.50;;;;;;4974745;28;20457;-83
2022/03/20 06:22:36;;;;;;;3.90;3.60;;;25.90;39.50;;;;;;4974680;28;20456;-84
2022/03/20 06:25:05;;;;;;;4.10;3.80;;;25.90;39.40;;;;;;4974912;28;20442;-84
2022/03/20 06:27:43;;;;;;;4.60;4.30;;;25.90;39.40;;;;;;4975055;28;20477;-94
2022/03/20 06:30:11;;;;;;;4.10;3.80;;;26.00;39.40;;;;;;4975064;28;20437;-84
2022/03/20 06:32:38;;;;;;;4.03;3.77;;;25.90;39.50;;;;;;4974857;28;20460;-83
2022/03/20 06:35:06;;;;;;;4.30;4.00;;;26.00;39.40;;;;;;4974833;28;20449;-83
2022/03/20 06:37:37;;;;;;;4.83;4.03;;;26.00;39.40;;;;;;4975730;28;20445;-83
2022/03/20 06:40:04;;;;;;;4.37;4.07;;;26.00;39.30;;;;;;4978752;28;20464;-83
2022/03/20 06:42:31;;;;;;;4.50;4.20;;;26.00;39.40;;;;;;4978512;28;20938;-84
2022/03/20 06:45:00;;;;;;;4.40;4.10;;;26.00;39.40;;;;;;4978677;28;20453;-84
2022/03/20 06:47:27;;;;;;;5.03;4.60;;;26.00;39.30;;;;;;4978273;28;20493;-84
2022/03/20 06:49:55;;;;;;;4.50;4.20;;;26.00;39.30;;;;;;4978599;28;20441;-84
2022/03/20 06:52:22;;;;;;;5.27;4.87;;;26.00;39.20;;;;;;4978583;28;20500;-84
2022/03/20 06:54:49;;;;;;;5.00;4.60;;;26.00;39.30;;;;;;4978475;28;20449;-83
2022/03/20 06:57:19;;;;;;;4.40;4.10;;;26.10;39.30;;;;;;4978473;28;20472;-85
2022/03/20 06:59:46;;;;;;;4.80;4.40;;;26.00;39.20;;;;;;4978578;28;20441;-93
2022/03/20 07:02:16;;;;;;;4.37;4.03;;;26.10;39.40;;;;;;4978735;28;20445;-86
2022/03/20 07:04:43;;;;;;;4.30;4.00;;;26.10;39.20;;;;;;4978540;28;20448;-93
2022/03/20 07:07:09;;;;;;;4.67;4.37;;;26.10;39.50;;;;;;4978007;28;20491;-78
2022/03/20 07:09:37;;;;;;;4.63;4.23;;;26.10;39.30;;;;;;4978030;28;20805;-85
2022/03/20 07:12:04;;;;;;;4.63;4.23;;;26.10;39.40;;;;;;4978118;28;20796;-90
2022/03/20 07:14:31;;;;;;;5.20;4.80;;;26.00;39.90;;;;;;4978124;28;20449;-80
2022/03/20 07:16:59;;;;;;;4.50;4.20;;;26.00;39.20;;;;;;4978532;28;20536;-80
2022/03/20 07:19:28;;;;;;;5.60;5.10;;;26.10;39.10;;;;;;4977985;28;20532;-90
2022/03/20 07:21:55;;;;;;;6.00;5.47;;;26.00;39.10;;;;;;4978018;28;20456;-81
2022/03/20 07:24:22;;;;;;;4.53;4.17;;;26.00;38.60;;;;;;4977675;28;20441;-80
2022/03/20 07:29:32;;;;;;;5.03;4.63;;;26.10;38.80;;;;;;4935564;28;20437;-80
2022/03/20 07:32:00;;;;;;;4.87;4.47;;;26.20;38.70;;;;;;4977499;28;20445;-80
2022/03/20 07:34:28;;;;;;;4.80;4.50;;;26.20;38.60;;;;;;4977725;28;20452;-80
2022/03/20 07:36:55;;;;;;;5.17;4.73;;;26.20;38.50;;;;;;4978045;28;20444;-80
2022/03/20 07:39:22;;;;;;;5.60;4.80;;;26.20;38.80;;;;;;4977910;28;20848;-92
2022/03/20 07:41:49;;;;;;;5.10;4.60;;;26.20;38.50;;;;;;4977817;28;20449;-91
2022/03/20 07:44:16;;;;;;;5.90;5.10;;;26.20;38.60;;;;;;4978281;28;20453;-81
2022/03/20 07:46:43;;;;;;;5.40;5.00;;;26.30;38.50;;;;;;4977619;28;20493;-90
2022/03/20 07:49:10;;;;;;;6.83;6.20;;;26.30;38.70;;;;;;4977465;28;20477;-87
2022/03/20 07:51:39;;;;;;;5.47;4.97;;;26.30;38.60;;;;;;4977809;28;20548;-86
2022/03/20 07:54:06;;;;;;;6.23;5.60;;;26.40;38.50;;;;;;4977428;28;20450;-86
2022/03/20 07:56:35;;;;;;;6.20;5.70;;;26.40;38.20;;;;;;4977389;28;20596;-88
2022/03/20 07:59:05;;;;;;;4.90;4.50;;;26.50;38.70;;;;;;4977341;28;20504;-82
2022/03/20 08:01:33;;;;;;;5.93;5.33;;;26.40;38.50;;;;;;4976986;28;20434;-86
2022/03/20 08:04:00;;;;;;;6.30;5.47;;;26.50;39.10;;;;;;4976987;28;20464;-87
2022/03/20 08:06:27;;;;;;;6.37;5.77;;;26.50;38.70;;;;;;4977290;28;20499;-86
2022/03/20 08:12:14;;;;;;;5.90;5.50;;;26.60;38.20;;;;;;4959335;28;20943;-90
2022/03/20 08:14:41;;;;;;;6.20;5.60;;;26.60;38.30;;;;;;4976970;28;20441;-84
2022/03/20 08:17:08;;;;;;;5.43;5.00;;;26.60;38.30;;;;;;4977132;28;20454;-83
2022/03/20 08:19:35;;;;;;;5.67;5.27;;;26.60;38.30;;;;;;4976923;28;20449;-81
2022/03/20 08:22:03;;;;;;;7.03;5.90;;;26.60;38.80;;;;;;4976931;28;20468;-82
2022/03/20 08:24:30;;;;;;;5.70;5.20;;;26.70;38.70;;;;;;4976498;28;20489;-83
2022/03/20 08:26:57;;;;;;;5.50;5.10;;;26.60;38.40;;;;;;4976399;28;20488;-82
2022/03/20 08:29:25;;;;;;;7.23;6.50;;;26.70;38.50;;;;;;4976482;28;20954;-83
2022/03/20 08:31:54;;;;;;;6.60;6.00;;;26.60;38.40;;;;;;4976393;28;20456;-83
2022/03/20 08:34:20;;;;;;;5.83;5.30;;;26.60;38.50;;;;;;4976778;28;20491;-88
2022/03/20 08:36:47;;;;;;;5.90;5.40;;;26.60;38.60;;;;;;4976989;28;20441;-86
2022/03/20 08:39:16;;;;;;;6.40;5.73;;;26.70;38.60;;;;;;4976712;28;20449;-84
2022/03/20 08:41:46;;;;;;;6.10;5.50;;;26.70;38.60;;;;;;4977026;28;20545;-83
2022/03/20 08:44:12;;;;;;;6.43;5.83;;;26.70;38.70;;;;;;4976030;28;20532;-88
2022/03/20 08:46:41;;;;;;;7.33;6.47;;;26.70;38.60;;;;;;4976806;28;20496;-89
2022/03/20 08:49:08;;;;;;;6.53;5.83;;;26.70;38.60;;;;;;4975938;28;20484;-88
2022/03/20 08:51:38;;;;;;;5.97;5.30;;;26.70;38.90;;;;;;4976248;28;20508;-81
2022/03/20 08:54:04;;;;;;;8.97;6.00;;;26.70;39.00;;;;;;4958700;28;20460;-86
2022/03/20 08:56:33;;;;;;;6.77;6.17;;;26.70;38.90;;;;;;4976212;28;20459;-85
2022/03/20 08:59:00;;;;;;;6.03;5.53;;;26.70;39.00;;;;;;4976421;28;20516;-89
2022/03/20 09:01:27;;;;;;;6.60;6.00;;;26.70;39.10;;;;;;4975688;28;20449;-85
2022/03/20 09:03:55;;;;;;;6.70;5.93;;;26.80;39.10;;;;;;4975990;28;20523;-93
2022/03/20 09:06:23;;;;;;;5.90;5.40;;;27.10;39.50;;;;;;4975938;28;20832;-93
2022/03/20 09:08:51;;;;;;;10.43;6.30;;;26.90;39.30;;;;;;4975854;28;20441;-85
2022/03/20 09:11:18;;;;;;;6.00;5.40;;;27.00;39.40;;;;;;4976628;28;20454;-85
2022/03/20 09:13:46;;;;;;;7.70;5.70;;;27.10;39.50;;;;;;4975863;28;20441;-86
2022/03/20 09:19:03;;;;;;;5.77;5.20;;;27.40;39.90;;;;;;4976114;28;20421;-86
2022/03/20 09:21:32;;;;;;;6.83;5.00;;;27.20;39.80;;;;;;4975513;28;20477;-85
2022/03/20 09:23:58;;;;;;;10.53;5.63;;;27.30;39.90;;;;;;4975663;28;20986;-90
2022/03/20 09:26:25;;;;;;;6.60;6.00;;;27.30;39.70;;;;;;4975396;28;20477;-86
2022/03/20 09:28:52;;;;;;;5.70;5.20;;;27.40;39.90;;;;;;4975417;28;20437;-94
2022/03/20 09:31:20;;;;;;;9.67;5.17;;;27.40;39.90;;;;;;4975698;28;20449;-86
2022/03/20 09:33:47;;;;;;;6.13;5.63;;;27.40;39.90;;;;;;4975815;28;20492;-92
2022/03/20 09:36:15;;;;;;;5.63;5.07;;;27.40;39.90;;;;;;4975667;28;20445;-88
2022/03/20 09:38:42;;;;;;;6.40;5.20;;;27.50;39.80;;;;;;4975482;28;20453;-84
2022/03/20 09:41:11;;;;;;;5.23;4.83;;;27.50;39.70;;;;;;4975569;28;20445;-85
2022/03/20 09:43:40;;;;;;;5.97;5.37;;;27.50;39.60;;;;;;4975471;28;20494;-86
2022/03/20 09:46:07;;;;;;;5.30;4.90;;;27.60;39.50;;;;;;4975337;28;20446;-85
2022/03/20 09:48:35;;;;;;;6.10;5.60;;;27.40;39.40;;;;;;4974964;28;20488;-85
2022/03/20 09:51:04;;;;;;;5.73;5.20;;;27.40;39.40;;;;;;4975540;28;20940;-85
2022/03/20 09:53:32;;;;;;;5.87;5.30;;;27.40;39.30;;;;;;4975335;28;20452;-86
2022/03/20 09:56:00;;;;;;;7.43;5.00;;;27.40;39.50;;;;;;4975262;28;20458;-86
2022/03/20 09:58:29;;;;;;;7.10;6.07;;;27.40;39.40;;;;;;4975378;28;20443;-86
2022/03/20 10:00:57;;;;;;;5.90;5.30;;;27.40;39.30;;;;;;4974942;28;20445;-90
2022/03/20 10:03:25;;;;;;;6.10;5.50;;;27.40;39.50;;;;;;4975095;28;20456;-94
2022/03/20 10:06:06;;;;;;;6.07;5.57;;;27.40;39.40;;;;;;4974908;28;20445;-86
2022/03/20 10:08:34;;;;;;;5.63;5.13;;;27.50;39.50;;;;;;4975200;28;20894;-86
2022/03/20 10:11:13;;;;;;;5.30;4.90;;;27.40;39.70;;;;;;4975235;28;20449;-94
2022/03/20 10:13:40;;;;;;;7.97;5.77;;;27.50;39.90;;;;;;4974077;28;20429;-85
2022/03/20 10:16:18;;;;;;;5.30;4.80;;;27.50;40.00;;;;;;4974981;28;20445;-84
2022/03/20 10:18:45;;;;;;;6.23;5.50;;;27.50;40.00;;;;;;4975031;28;20458;-92
2022/03/20 10:21:12;;;;;;;6.20;5.57;;;27.50;40.00;;;;;;4975040;28;20449;-86
2022/03/20 10:23:42;;;;;;;6.37;5.77;;;27.60;40.00;;;;;;4974946;28;20451;-87
2022/03/20 10:26:11;;;;;;;6.13;4.93;;;27.60;40.00;;;;;;4975068;28;20441;-93
2022/03/20 10:28:39;;;;;;;5.57;5.07;;;27.60;40.00;;;;;;4974777;28;20481;-85
2022/03/20 10:31:08;;;;;;;5.60;5.10;;;27.60;40.00;;;;;;4975410;28;20452;-87
2022/03/20 10:33:38;;;;;;;6.50;6.00;;;27.60;40.00;;;;;;4974977;28;20452;-87
2022/03/20 10:36:14;;;;;;;5.80;5.30;;;27.70;40.00;;;;;;4974905;28;20779;-85
2022/03/20 10:38:43;;;;;;;5.30;4.80;;;27.70;40.00;;;;;;4974846;28;20455;-87
2022/03/20 10:41:21;;;;;;;5.10;4.80;;;27.70;40.00;;;;;;4974466;28;20450;-85
2022/03/20 10:43:48;;;;;;;5.30;4.90;;;27.70;40.00;;;;;;4974816;28;20441;-86
2022/03/20 10:46:20;;;;;;;5.60;5.10;;;27.70;40.00;;;;;;4974779;28;20471;-86
2022/03/20 10:48:49;;;;;;;7.00;5.13;;;27.70;40.00;;;;;;4974373;28;20500;-86
2022/03/20 10:51:27;;;;;;;6.03;5.43;;;27.60;40.00;;;;;;4974662;28;20548;-86
2022/03/20 10:53:58;;;;;;;5.27;4.87;;;27.70;40.00;;;;;;4974731;28;20429;-85
2022/03/20 10:56:25;;;;;;;4.40;4.10;;;27.60;40.00;;;;;;4974784;28;20425;-85
2022/03/20 10:58:52;;;;;;;5.30;4.90;;;27.60;40.10;;;;;;4974670;28;20446;-86
2022/03/20 11:01:19;;;;;;;5.70;4.97;;;27.60;40.10;;;;;;4974568;28;20445;-86
2022/03/20 11:03:47;;;;;;;5.83;5.30;;;27.60;40.10;;;;;;4974738;28;20456;-88
2022/03/20 11:06:15;;;;;;;4.73;4.40;;;27.60;40.10;;;;;;4974251;28;20453;-86
2022/03/20 11:08:42;;;;;;;5.90;5.40;;;27.50;40.00;;;;;;4974509;28;20555;-86
2022/03/20 11:11:11;;;;;;;6.00;5.10;;;27.50;40.00;;;;;;4974198;28;20897;-85
2022/03/20 11:13:40;;;;;;;5.03;4.63;;;27.50;40.00;;;;;;4975344;28;20841;-92
2022/03/20 11:16:09;;;;;;;5.60;5.20;;;27.50;40.10;;;;;;4974514;28;20548;-86
2022/03/20 11:18:38;;;;;;;6.30;5.80;;;27.50;40.10;;;;;;4974545;28;20447;-93
2022/03/20 11:21:06;;;;;;;5.50;5.00;;;27.50;40.00;;;;;;4974565;28;20445;-85
2022/03/20 11:23:35;;;;;;;5.70;5.20;;;27.50;40.00;;;;;;4975718;28;20549;-92
2022/03/20 11:26:04;;;;;;;5.63;5.13;;;27.50;40.10;;;;;;4978229;28;20448;-87
2022/03/20 11:28:36;;;;;;;4.93;4.47;;;27.50;40.10;;;;;;4977926;28;20488;-85
2022/03/20 11:31:03;;;;;;;5.90;4.97;;;27.60;40.10;;;;;;4978247;28;20433;-92
2022/03/20 11:33:30;;;;;;;6.27;5.77;;;27.50;40.00;;;;;;4977852;28;20962;-93
2022/03/20 11:36:01;;;;;;;5.73;5.23;;;27.50;39.90;;;;;;4977854;28;20437;-86
2022/03/20 11:38:28;;;;;;;5.17;4.77;;;27.70;39.60;;;;;;4977927;28;20429;-86
2022/03/20 11:41:10;;;;;;;5.97;5.50;;;27.50;39.60;;;;;;4977327;28;20479;-86
2022/03/20 11:43:39;;;;;;;5.70;5.30;;;27.50;39.30;;;;;;4978083;28;20448;-87
2022/03/20 11:46:27;;;;;;;6.60;6.07;;;27.50;39.60;;;;;;4977499;28;20441;-85
2022/03/20 11:49:23;;;;;;;6.13;5.53;;;27.50;39.50;;;;;;4977208;28;20552;-86
2022/03/20 11:52:09;;;;;;;6.53;5.93;;;27.50;39.70;;;;;;4977587;28;20467;-86
2022/03/20 11:54:55;;;;;;;6.00;5.50;;;27.50;39.40;;;;;;4977351;28;20441;-86
2022/03/20 11:57:40;;;;;;;5.33;4.90;;;27.50;39.60;;;;;;4977653;28;20437;-93
2022/03/20 12:00:15;;;;;;;5.00;4.60;;;27.50;39.50;;;;;;4977184;28;20445;-86
2022/03/20 12:02:55;;;;;;;6.37;5.87;;;27.50;39.70;;;;;;4977388;28;20445;-85
2022/03/20 12:05:40;;;;;;;5.70;5.20;;;27.50;39.40;;;;;;4977329;28;20437;-86
2022/03/20 12:08:26;;;;;;;8.40;5.43;;;27.50;39.50;;;;;;4977280;28;20494;-86
2022/03/20 12:11:04;;;;;;;6.13;5.63;;;27.50;39.50;;;;;;4977208;28;20430;-90
2022/03/20 12:13:44;;;;;;;5.67;5.20;;;27.50;39.50;;;;;;4977395;28;20429;-86
2022/03/20 12:16:12;;;;;;;6.87;6.27;;;27.50;39.50;;;;;;4977277;28;20799;-85
2022/03/20 12:19:07;;;;;;;6.53;5.93;;;27.40;39.60;;;;;;4977099;28;20452;-86
2022/03/20 12:21:54;;;;;;;6.10;5.60;;;27.50;39.60;;;;;;4976834;28;20959;-86
2022/03/20 12:24:49;;;;;;;5.30;4.90;;;27.60;39.70;;;;;;4977323;28;20429;-92
2022/03/20 12:27:41;;;;;;;6.30;5.80;;;27.50;39.60;;;;;;4976994;28;20445;-87
2022/03/20 12:30:36;;;;;;;6.10;5.60;;;27.40;39.60;;;;;;4976979;28;20442;-86
2022/03/20 12:33:20;;;;;;;6.33;5.73;;;27.60;39.70;;;;;;4931718;28;20450;-92
2022/03/20 12:35:47;;;;;;;5.80;5.40;;;27.40;39.90;;;;;;4975997;28;20497;-86
2022/03/20 12:38:41;;;;;;;5.87;5.40;;;27.40;39.70;;;;;;4976724;28;20447;-85
2022/03/20 12:41:09;;;;;;;6.97;6.47;;;27.40;39.70;;;;;;4976750;28;20434;-86
2022/03/20 12:43:37;;;;;;;5.80;5.13;;;27.40;39.80;;;;;;4976380;28;20978;-86
2022/03/20 12:46:07;;;;;;;5.27;4.87;;;27.40;39.70;;;;;;4976556;28;20450;-92
2022/03/20 12:48:35;;;;;;;6.60;6.10;;;27.40;39.80;;;;;;4976285;28;20511;-89
2022/03/20 12:51:09;;;;;;;6.00;5.50;;;27.40;39.80;;;;;;4976429;28;20495;-86
2022/03/20 12:53:40;;;;;;;6.30;5.80;;;27.40;39.70;;;;;;4976513;28;20660;-93
2022/03/20 12:56:14;;;;;;;5.67;5.23;;;27.40;39.80;;;;;;4976325;28;20453;-93
2022/03/20 12:58:40;;;;;;;6.33;5.73;;;27.40;39.70;;;;;;4976137;28;20469;-86
2022/03/20 13:01:08;;;;;;;7.00;6.40;;;27.50;39.80;;;;;;4976190;28;20454;-86
2022/03/20 13:03:36;;;;;;;6.27;5.67;;;27.40;39.70;;;;;;4975948;28;20448;-86
2022/03/20 13:06:04;;;;;;;5.70;5.30;;;27.40;39.80;;;;;;4976198;28;20441;-93
2022/03/20 13:08:33;;;;;;;5.73;5.33;;;27.50;39.90;;;;;;4976057;28;20476;-86
2022/03/20 13:11:03;;;;;;;6.63;6.13;;;27.40;39.90;;;;;;4976052;28;20468;-86
2022/03/20 13:13:33;;;;;;;6.17;5.67;;;27.40;39.90;;;;;;4976265;28;20968;-90
2022/03/20 13:16:01;;;;;;;6.40;5.90;;;27.40;39.90;;;;;;4976056;28;20528;-85
2022/03/20 13:18:30;;;;;;;5.60;5.20;;;27.40;39.90;;;;;;4975570;28;20449;-85
2022/03/20 13:21:04;;;;;;;6.60;6.00;;;27.40;40.00;;;;;;4975958;28;20851;-83
2022/03/20 13:23:31;;;;;;;5.80;5.30;;;27.40;40.00;;;;;;4975813;28;20524;-85
2022/03/20 13:25:58;;;;;;;6.20;5.70;;;27.40;40.00;;;;;;4976750;28;20445;-85
2022/03/20 13:28:28;;;;;;;6.27;5.77;;;27.40;40.00;;;;;;4975740;28;20496;-84
2022/03/20 13:30:57;;;;;;;6.10;5.70;;;27.50;40.00;;;;;;4976457;28;20835;-84
2022/03/20 13:33:31;;;;;;;5.70;5.30;;;27.40;40.00;;;;;;4977360;28;20928;-84
2022/03/20 13:36:01;;;;;;;5.50;5.10;;;27.40;40.00;;;;;;4975695;28;20535;-84
2022/03/20 13:38:36;;;;;;;4.73;4.43;;;27.40;40.00;;;;;;4975685;28;20456;-84